Penza, Russia
Current Conditions -  °F | °C
As of 8:00 AM on Saturday 22 Nov 2014 (Local Time) from UWSS Reporting Station
Overcast Overcast  
Wind Chill: 17°   Ceiling: 1000
Heat Index: 23°   Visibility: 6mi
Dew Point: 19°   Wind: 4mph
Humidity: 86%   Direction: NA
Pressure: 30.42"   Gusts: NA
Location:  53.2°N, 45°E
Report Text: UWSS 220500Z VRB02MPS 9999 OVC010 M05/M07 Q1030 120///60 NOSIGRMK QFE761
Loading
Personal Weather Stations






























Interactive Weather Map New forecast layout! Learn more

10-Day Weather Forecast

Advertisements
Track Severe Weather on mobile